Time;durP1;ratioP1;P1;durP2;ratioP2;P2;SDS_P1;SDS_P2;PMS_P1;PMS_P2;Temp;Humidity;BMP_temperature;BMP_pressure;BME280_temperature;BME280_humidity;BME280_pressure;Samples;Min_cycle;Max_cycle;Signal;HPM_P1;HPM_P2
2023/10/09 00:00:50;;;;;;;0.00;0.00;;;;;;;;;;1752370;28;20201;-65
2023/10/09 00:01:44;;;;;;;0.00;0.00;;;;;;;;;;1752328;28;20748;-64
2023/10/09 00:02:35;;;;;;;0.00;0.00;;;;;;;;;;1753957;28;20770;-66
2023/10/09 00:03:27;;;;;;;0.00;0.00;;;;;;;;;;1754410;28;20232;-65
2023/10/09 00:04:20;;;;;;;0.00;0.00;;;;;;;;;;1752805;28;20198;-66
2023/10/09 00:05:22;;;;;;;0.00;0.00;;;;;;;;;;1752146;28;20221;-65
2023/10/09 00:06:13;;;;;;;0.00;0.00;;;;;;;;;;1752727;28;20206;-66
2023/10/09 00:07:08;;;;;;;0.00;0.00;;;;;;;;;;1753846;28;20727;-65
2023/10/09 00:07:59;;;;;;;0.00;0.00;;;;;;;;;;1754605;28;20565;-66
2023/10/09 00:08:54;;;;;;;0.00;0.00;;;;;;;;;;1752028;28;20209;-67
2023/10/09 00:09:50;;;;;;;0.00;0.00;;;;;;;;;;1747041;28;20697;-65
2023/10/09 00:10:49;;;;;;;0.00;0.00;;;;;;;;;;1751956;28;20654;-65
2023/10/09 00:11:44;;;;;;;0.00;0.00;;;;;;;;;;1752316;28;20259;-65
2023/10/09 00:12:36;;;;;;;0.00;0.00;;;;;;;;;;1751741;28;20276;-66
2023/10/09 00:13:28;;;;;;;0.00;0.00;;;;;;;;;;1753887;28;20237;-66
2023/10/09 00:14:19;;;;;;;0.00;0.00;;;;;;;;;;1753177;28;20222;-66
2023/10/09 00:15:12;;;;;;;0.00;0.00;;;;;;;;;;1752763;28;20259;-66
2023/10/09 00:16:14;;;;;;;0.00;0.00;;;;;;;;;;1754410;28;20216;-66
2023/10/09 00:17:17;;;;;;;0.00;0.00;;;;;;;;;;1754106;28;20634;-65
2023/10/09 00:18:12;;;;;;;0.00;0.00;;;;;;;;;;1752542;28;20205;-65
2023/10/09 00:19:13;;;;;;;0.00;0.00;;;;;;;;;;1752048;28;20209;-65
2023/10/09 00:20:17;;;;;;;0.00;0.00;;;;;;;;;;1752649;28;20566;-65
2023/10/09 00:21:15;;;;;;;0.00;0.00;;;;;;;;;;1754171;28;20762;-66
2023/10/09 00:22:11;;;;;;;0.00;0.00;;;;;;;;;;1754033;28;20270;-65
2023/10/09 00:23:06;;;;;;;0.00;0.00;;;;;;;;;;1754093;28;20312;-66
2023/10/09 00:23:59;;;;;;;0.00;0.00;;;;;;;;;;1752611;28;20292;-67
2023/10/09 00:25:09;;;;;;;0.00;0.00;;;;;;;;;;1752910;28;20209;-65
2023/10/09 00:26:08;;;;;;;0.00;0.00;;;;;;;;;;1754090;28;20217;-65
2023/10/09 00:27:11;;;;;;;0.00;0.00;;;;;;;;;;1754086;28;20194;-66
2023/10/09 00:28:18;;;;;;;0.00;0.00;;;;;;;;;;1754191;28;20201;-65
2023/10/09 00:29:14;;;;;;;0.00;0.00;;;;;;;;;;1752949;28;20212;-65
2023/10/09 00:30:06;;;;;;;0.00;0.00;;;;;;;;;;1752511;28;20205;-66
2023/10/09 00:30:57;;;;;;;0.00;0.00;;;;;;;;;;1754256;28;20208;-65
2023/10/09 00:31:56;;;;;;;0.00;0.00;;;;;;;;;;1753112;28;20209;-66
2023/10/09 00:32:53;;;;;;;0.00;0.00;;;;;;;;;;1752060;28;20201;-65
2023/10/09 00:33:44;;;;;;;0.00;0.00;;;;;;;;;;1750842;28;20251;-65
2023/10/09 00:34:39;;;;;;;0.00;0.00;;;;;;;;;;1752873;28;20197;-65
2023/10/09 00:35:36;;;;;;;0.00;0.00;;;;;;;;;;1752420;28;20296;-68
2023/10/09 00:36:29;;;;;;;0.00;0.00;;;;;;;;;;1753945;28;20691;-67
2023/10/09 00:37:22;;;;;;;0.00;0.00;;;;;;;;;;1754182;28;20217;-66
2023/10/09 00:38:23;;;;;;;0.00;0.00;;;;;;;;;;1753967;28;20235;-65
2023/10/09 00:39:33;;;;;;;0.00;0.00;;;;;;;;;;1752834;28;20239;-65
2023/10/09 00:40:32;;;;;;;0.00;0.00;;;;;;;;;;1752190;28;20206;-65
2023/10/09 00:41:24;;;;;;;0.00;0.00;;;;;;;;;;1754047;28;20747;-65
2023/10/09 00:42:27;;;;;;;0.00;0.00;;;;;;;;;;1753676;28;20221;-65
2023/10/09 00:43:19;;;;;;;0.00;0.00;;;;;;;;;;1753815;28;20213;-65
2023/10/09 00:44:10;;;;;;;0.00;0.00;;;;;;;;;;1752532;28;20208;-65
2023/10/09 00:45:03;;;;;;;0.00;0.00;;;;;;;;;;1752423;28;20209;-66
2023/10/09 00:45:55;;;;;;;0.00;0.00;;;;;;;;;;1754128;28;20248;-65
2023/10/09 00:46:47;;;;;;;0.00;0.00;;;;;;;;;;1752538;28;20336;-65
2023/10/09 00:47:40;;;;;;;0.00;0.00;;;;;;;;;;1753703;28;20212;-65
2023/10/09 00:48:37;;;;;;;0.00;0.00;;;;;;;;;;1753546;28;20249;-65
2023/10/09 00:49:31;;;;;;;0.00;0.00;;;;;;;;;;1752617;28;20206;-66
2023/10/09 00:50:23;;;;;;;0.00;0.00;;;;;;;;;;1752065;28;20678;-65
2023/10/09 00:51:16;;;;;;;0.00;0.00;;;;;;;;;;1753871;28;20687;-66
2023/10/09 00:52:17;;;;;;;0.00;0.00;;;;;;;;;;1753497;28;20767;-67
2023/10/09 00:53:12;;;;;;;0.00;0.00;;;;;;;;;;1753312;28;20204;-66
2023/10/09 00:54:07;;;;;;;0.00;0.00;;;;;;;;;;1752364;28;20637;-66
2023/10/09 00:55:04;;;;;;;0.00;0.00;;;;;;;;;;1752011;28;20203;-66
2023/10/09 00:55:56;;;;;;;0.00;0.00;;;;;;;;;;1753623;28;20193;-66
2023/10/09 00:56:57;;;;;;;0.00;0.00;;;;;;;;;;1752417;28;20205;-65
2023/10/09 00:57:51;;;;;;;0.00;0.00;;;;;;;;;;1752115;28;20555;-65
2023/10/09 00:58:43;;;;;;;0.00;0.00;;;;;;;;;;1752406;28;20593;-66
2023/10/09 00:59:38;;;;;;;0.00;0.00;;;;;;;;;;1752676;28;20240;-66
2023/10/09 01:00:45;;;;;;;0.00;0.00;;;;;;;;;;1752105;28;20651;-65
2023/10/09 01:01:40;;;;;;;0.00;0.00;;;;;;;;;;1749717;28;20198;-66
2023/10/09 01:02:36;;;;;;;0.00;0.00;;;;;;;;;;1753742;28;20206;-65
2023/10/09 01:03:28;;;;;;;0.00;0.00;;;;;;;;;;1753465;28;20213;-66
2023/10/09 01:04:22;;;;;;;0.00;0.00;;;;;;;;;;1752504;28;20197;-67
2023/10/09 01:05:19;;;;;;;0.00;0.00;;;;;;;;;;1751952;28;20592;-68
2023/10/09 01:06:21;;;;;;;0.00;0.00;;;;;;;;;;1753871;28;20228;-67
2023/10/09 01:07:15;;;;;;;0.00;0.00;;;;;;;;;;1753149;28;20257;-66
2023/10/09 01:08:16;;;;;;;0.00;0.00;;;;;;;;;;1753485;28;20278;-65
2023/10/09 01:09:10;;;;;;;0.00;0.00;;;;;;;;;;1753492;28;20197;-66
2023/10/09 01:10:10;;;;;;;0.00;0.00;;;;;;;;;;1753323;28;20209;-66
2023/10/09 01:11:09;;;;;;;0.00;0.00;;;;;;;;;;1753460;28;20823;-66
2023/10/09 01:12:03;;;;;;;0.00;0.00;;;;;;;;;;1756367;28;20244;-65
2023/10/09 01:12:56;;;;;;;0.00;0.00;;;;;;;;;;1760467;28;20209;-66
2023/10/09 01:13:52;;;;;;;0.00;0.00;;;;;;;;;;1759014;27;20228;-65
2023/10/09 01:14:44;;;;;;;0.00;0.00;;;;;;;;;;1759870;28;20526;-66
2023/10/09 01:15:36;;;;;;;0.00;0.00;;;;;;;;;;1759296;28;20619;-66
2023/10/09 01:16:31;;;;;;;0.00;0.00;;;;;;;;;;1760684;28;20257;-66
2023/10/09 01:17:35;;;;;;;0.00;0.00;;;;;;;;;;1760595;28;20296;-66
2023/10/09 01:18:35;;;;;;;0.00;0.00;;;;;;;;;;1760175;28;20212;-65
2023/10/09 01:19:27;;;;;;;0.00;0.00;;;;;;;;;;1760506;28;20201;-65
2023/10/09 01:20:30;;;;;;;0.00;0.00;;;;;;;;;;1758848;28;20589;-66
2023/10/09 01:21:24;;;;;;;0.00;0.00;;;;;;;;;;1760612;28;20407;-68
2023/10/09 01:22:21;;;;;;;0.00;0.00;;;;;;;;;;1760138;28;20780;-68
2023/10/09 01:23:14;;;;;;;0.00;0.00;;;;;;;;;;1760283;28;20215;-66
2023/10/09 01:24:07;;;;;;;0.00;0.00;;;;;;;;;;1760293;28;20250;-66
2023/10/09 01:24:59;;;;;;;0.00;0.00;;;;;;;;;;1759696;28;20201;-68
2023/10/09 01:25:51;;;;;;;0.00;0.00;;;;;;;;;;1759693;28;20239;-68
2023/10/09 01:26:44;;;;;;;0.00;0.00;;;;;;;;;;1759968;28;20205;-66
2023/10/09 01:27:40;;;;;;;0.00;0.00;;;;;;;;;;1760761;28;20603;-66
2023/10/09 01:28:31;;;;;;;0.00;0.00;;;;;;;;;;1760142;28;20220;-67
2023/10/09 01:29:27;;;;;;;0.00;0.00;;;;;;;;;;1760556;28;20231;-66
2023/10/09 01:30:20;;;;;;;0.00;0.00;;;;;;;;;;1752097;28;20624;-66
2023/10/09 01:31:12;;;;;;;0.00;0.00;;;;;;;;;;1753550;28;20236;-68
2023/10/09 01:32:06;;;;;;;0.00;0.00;;;;;;;;;;1757642;28;20394;-68
2023/10/09 01:33:00;;;;;;;0.00;0.00;;;;;;;;;;1760585;28;20548;-67
2023/10/09 01:33:53;;;;;;;0.00;0.00;;;;;;;;;;1759853;28;20276;-68
2023/10/09 01:34:49;;;;;;;0.00;0.00;;;;;;;;;;1759677;28;20678;-66
2023/10/09 01:35:47;;;;;;;0.00;0.00;;;;;;;;;;1759140;28;20548;-66
2023/10/09 01:36:39;;;;;;;0.00;0.00;;;;;;;;;;1758584;28;20204;-66
2023/10/09 01:37:36;;;;;;;0.00;0.00;;;;;;;;;;1760607;28;20508;-66
2023/10/09 01:38:40;;;;;;;0.00;0.00;;;;;;;;;;1760260;28;20209;-66
2023/10/09 01:39:39;;;;;;;0.00;0.00;;;;;;;;;;1759615;28;20245;-66
2023/10/09 01:40:37;;;;;;;0.00;0.00;;;;;;;;;;1759013;28;20200;-66
2023/10/09 01:41:28;;;;;;;0.00;0.00;;;;;;;;;;1759253;28;20253;-66
2023/10/09 01:42:27;;;;;;;0.00;0.00;;;;;;;;;;1759538;28;20240;-65
2023/10/09 01:43:21;;;;;;;0.00;0.00;;;;;;;;;;1752407;28;20283;-66
2023/10/09 01:44:12;;;;;;;0.00;0.00;;;;;;;;;;1759480;28;20795;-65
2023/10/09 01:45:26;;;;;;;0.00;0.00;;;;;;;;;;1759218;28;20777;-66
2023/10/09 01:46:19;;;;;;;0.00;0.00;;;;;;;;;;1759744;28;20205;-65
2023/10/09 01:47:15;;;;;;;0.00;0.00;;;;;;;;;;1759190;28;20200;-65
2023/10/09 01:48:09;;;;;;;0.00;0.00;;;;;;;;;;1759774;28;20217;-65
2023/10/09 01:49:09;;;;;;;0.00;0.00;;;;;;;;;;1759234;28;20196;-66
2023/10/09 01:50:04;;;;;;;0.00;0.00;;;;;;;;;;1759068;28;20204;-65
2023/10/09 01:50:55;;;;;;;0.00;0.00;;;;;;;;;;1760250;28;20213;-66
2023/10/09 01:51:48;;;;;;;0.00;0.00;;;;;;;;;;1759574;28;20196;-64
2023/10/09 01:52:42;;;;;;;0.00;0.00;;;;;;;;;;1759043;28;20601;-66
2023/10/09 01:53:38;;;;;;;0.00;0.00;;;;;;;;;;1759822;28;20896;-67
2023/10/09 01:54:36;;;;;;;0.00;0.00;;;;;;;;;;1759481;28;20247;-66
2023/10/09 01:55:33;;;;;;;0.00;0.00;;;;;;;;;;1758771;28;20500;-66
2023/10/09 01:56:25;;;;;;;0.00;0.00;;;;;;;;;;1760446;28;20240;-65
2023/10/09 01:57:22;;;;;;;0.00;0.00;;;;;;;;;;1758619;28;20207;-66
2023/10/09 01:58:23;;;;;;;0.00;0.00;;;;;;;;;;1759381;28;20690;-66
2023/10/09 01:59:15;;;;;;;0.00;0.00;;;;;;;;;;1759328;28;20219;-66
2023/10/09 02:00:09;;;;;;;0.00;0.00;;;;;;;;;;1758957;28;20711;-66
2023/10/09 02:01:02;;;;;;;0.00;0.00;;;;;;;;;;1757598;28;20542;-66
2023/10/09 02:01:54;;;;;;;0.00;0.00;;;;;;;;;;1758844;28;20741;-66
2023/10/09 02:02:46;;;;;;;0.00;0.00;;;;;;;;;;1758301;28;20205;-66
2023/10/09 02:03:38;;;;;;;0.00;0.00;;;;;;;;;;1758650;28;20213;-66
2023/10/09 02:04:29;;;;;;;0.00;0.00;;;;;;;;;;1760041;28;20204;-66
2023/10/09 02:05:26;;;;;;;0.00;0.00;;;;;;;;;;1758892;28;20224;-66
2023/10/09 02:06:24;;;;;;;0.00;0.00;;;;;;;;;;1759530;28;20668;-65
2023/10/09 02:07:22;;;;;;;0.00;0.00;;;;;;;;;;1759846;28;20596;-66
2023/10/09 02:08:13;;;;;;;0.00;0.00;;;;;;;;;;1759889;28;20208;-66
2023/10/09 02:09:06;;;;;;;0.00;0.00;;;;;;;;;;1759060;28;20201;-66
2023/10/09 02:09:58;;;;;;;0.00;0.00;;;;;;;;;;1758851;28;20299;-65
2023/10/09 02:10:49;;;;;;;0.00;0.00;;;;;;;;;;1759394;28;20239;-66
2023/10/09 02:11:45;;;;;;;0.00;0.00;;;;;;;;;;1759193;28;20212;-66
2023/10/09 02:12:37;;;;;;;0.00;0.00;;;;;;;;;;1752984;28;20554;-66
2023/10/09 02:13:29;;;;;;;0.00;0.00;;;;;;;;;;1752719;28;20201;-65
2023/10/09 02:14:24;;;;;;;0.00;0.00;;;;;;;;;;1752773;28;20311;-67
2023/10/09 02:15:15;;;;;;;0.00;0.00;;;;;;;;;;1752273;28;20205;-65
2023/10/09 02:16:14;;;;;;;0.00;0.00;;;;;;;;;;1753673;28;20338;-66
2023/10/09 02:17:17;;;;;;;0.00;0.00;;;;;;;;;;1753959;28;20657;-66
2023/10/09 02:18:16;;;;;;;0.00;0.00;;;;;;;;;;1754068;28;20297;-66
2023/10/09 02:19:20;;;;;;;0.00;0.00;;;;;;;;;;1754000;28;20189;-66
2023/10/09 02:20:18;;;;;;;0.00;0.00;;;;;;;;;;1752723;28;20252;-66
2023/10/09 02:21:12;;;;;;;0.00;0.00;;;;;;;;;;1753996;28;20202;-66
2023/10/09 02:22:12;;;;;;;0.00;0.00;;;;;;;;;;1753587;28;20218;-66
2023/10/09 02:23:12;;;;;;;0.00;0.00;;;;;;;;;;1753821;28;20189;-66
2023/10/09 02:24:07;;;;;;;0.00;0.00;;;;;;;;;;1754067;28;20344;-66
2023/10/09 02:24:58;;;;;;;0.00;0.00;;;;;;;;;;1754083;28;20660;-66
2023/10/09 02:25:53;;;;;;;0.00;0.00;;;;;;;;;;1753495;28;20212;-66
2023/10/09 02:27:53;;;;;;;0.00;0.00;;;;;;;;;;1755571;28;20255;-63
2023/10/09 02:28:52;;;;;;;0.00;0.00;;;;;;;;;;1753069;28;20586;-65
2023/10/09 02:29:43;;;;;;;0.00;0.00;;;;;;;;;;1753620;28;20202;-66
2023/10/09 02:30:35;;;;;;;0.00;0.00;;;;;;;;;;1753203;28;20204;-66
2023/10/09 02:31:33;;;;;;;0.00;0.00;;;;;;;;;;1753721;28;20260;-66
2023/10/09 02:32:25;;;;;;;0.00;0.00;;;;;;;;;;1753412;28;20217;-65
2023/10/09 02:33:27;;;;;;;0.00;0.00;;;;;;;;;;1753632;28;20198;-65
2023/10/09 02:34:22;;;;;;;0.00;0.00;;;;;;;;;;1751380;28;20577;-66
2023/10/09 02:35:36;;;;;;;0.00;0.00;;;;;;;;;;1753291;28;20204;-66
2023/10/09 02:36:28;;;;;;;0.00;0.00;;;;;;;;;;1753517;28;20254;-66
2023/10/09 02:37:25;;;;;;;0.00;0.00;;;;;;;;;;1753689;28;20590;-66
2023/10/09 02:38:17;;;;;;;0.00;0.00;;;;;;;;;;1753493;28;20237;-66
2023/10/09 02:39:22;;;;;;;0.00;0.00;;;;;;;;;;1753482;28;20727;-66
2023/10/09 02:40:23;;;;;;;0.00;0.00;;;;;;;;;;1753377;28;20301;-66
2023/10/09 02:42:26;;;;;;;0.00;0.00;;;;;;;;;;1746238;28;20253;-66
2023/10/09 02:43:18;;;;;;;0.00;0.00;;;;;;;;;;1753153;28;20205;-65
2023/10/09 02:44:11;;;;;;;0.00;0.00;;;;;;;;;;1753589;28;20212;-66
2023/10/09 02:45:03;;;;;;;0.00;0.00;;;;;;;;;;1753211;28;20648;-66
2023/10/09 02:45:55;;;;;;;0.00;0.00;;;;;;;;;;1753649;28;20247;-66
2023/10/09 02:46:47;;;;;;;0.00;0.00;;;;;;;;;;1749244;28;20408;-66
2023/10/09 02:47:39;;;;;;;0.00;0.00;;;;;;;;;;1753402;28;20205;-65
2023/10/09 02:48:33;;;;;;;0.00;0.00;;;;;;;;;;1753476;28;20206;-66
2023/10/09 02:49:26;;;;;;;0.00;0.00;;;;;;;;;;1753180;28;20213;-66
2023/10/09 02:50:20;;;;;;;0.00;0.00;;;;;;;;;;1753179;28;20209;-66
2023/10/09 02:51:21;;;;;;;0.00;0.00;;;;;;;;;;1753178;28;20584;-66
2023/10/09 02:52:17;;;;;;;0.00;0.00;;;;;;;;;;1753249;28;20764;-66
2023/10/09 02:53:09;;;;;;;0.00;0.00;;;;;;;;;;1752641;28;20239;-66
2023/10/09 02:54:07;;;;;;;0.00;0.00;;;;;;;;;;1750808;28;20231;-66
2023/10/09 02:55:08;;;;;;;0.00;0.00;;;;;;;;;;1744219;28;20289;-66
2023/10/09 02:56:12;;;;;;;0.00;0.00;;;;;;;;;;1752755;28;20327;-66
2023/10/09 02:57:07;;;;;;;0.00;0.00;;;;;;;;;;1753134;28;20194;-66
2023/10/09 02:58:07;;;;;;;0.00;0.00;;;;;;;;;;1753309;28;20205;-66
2023/10/09 02:59:05;;;;;;;0.00;0.00;;;;;;;;;;1753148;28;20201;-66
2023/10/09 02:59:59;;;;;;;0.00;0.00;;;;;;;;;;1753020;28;20619;-66
2023/10/09 03:00:51;;;;;;;0.00;0.00;;;;;;;;;;1748991;28;20360;-66
2023/10/09 03:01:42;;;;;;;0.00;0.00;;;;;;;;;;1752621;28;20668;-66
2023/10/09 03:02:35;;;;;;;0.00;0.00;;;;;;;;;;1753151;28;20212;-66
2023/10/09 03:03:28;;;;;;;0.00;0.00;;;;;;;;;;1753061;28;20210;-66
2023/10/09 03:04:19;;;;;;;0.00;0.00;;;;;;;;;;1753163;28;20579;-66
2023/10/09 03:05:12;;;;;;;0.00;0.00;;;;;;;;;;1753037;28;20310;-66
2023/10/09 03:06:10;;;;;;;0.00;0.00;;;;;;;;;;1753079;28;20300;-67
2023/10/09 03:07:04;;;;;;;0.00;0.00;;;;;;;;;;1753051;28;20197;-66
2023/10/09 03:07:55;;;;;;;0.00;0.00;;;;;;;;;;1753220;28;20672;-66
2023/10/09 03:08:47;;;;;;;0.00;0.00;;;;;;;;;;1751957;28;20835;-66
2023/10/09 03:09:40;;;;;;;0.00;0.00;;;;;;;;;;1753322;28;20197;-66
2023/10/09 03:10:34;;;;;;;0.00;0.00;;;;;;;;;;1752350;28;20941;-66
2023/10/09 03:11:26;;;;;;;0.00;0.00;;;;;;;;;;1753046;28;20241;-67
2023/10/09 03:12:18;;;;;;;0.00;0.00;;;;;;;;;;1757377;27;20236;-67
2023/10/09 03:13:09;;;;;;;0.00;0.00;;;;;;;;;;1759879;28;20201;-66
2023/10/09 03:14:04;;;;;;;0.00;0.00;;;;;;;;;;1759840;27;20205;-66
2023/10/09 03:14:58;;;;;;;0.00;0.00;;;;;;;;;;1759963;27;20228;-65
2023/10/09 03:15:51;;;;;;;0.00;0.00;;;;;;;;;;1760425;28;20208;-66
2023/10/09 03:16:43;;;;;;;0.00;0.00;;;;;;;;;;1759651;27;20205;-66
2023/10/09 03:17:35;;;;;;;0.00;0.00;;;;;;;;;;1760201;27;20591;-66
2023/10/09 03:18:28;;;;;;;0.00;0.00;;;;;;;;;;1759609;28;20219;-66
2023/10/09 03:19:19;;;;;;;0.00;0.00;;;;;;;;;;1759860;27;20205;-67
2023/10/09 03:20:13;;;;;;;0.00;0.00;;;;;;;;;;1759701;28;20201;-66
2023/10/09 03:21:04;;;;;;;0.00;0.00;;;;;;;;;;1759691;28;20265;-66
2023/10/09 03:21:57;;;;;;;0.00;0.00;;;;;;;;;;1759705;27;20197;-66
2023/10/09 03:22:49;;;;;;;0.00;0.00;;;;;;;;;;1759954;28;20212;-67
2023/10/09 03:23:43;;;;;;;0.00;0.00;;;;;;;;;;1759761;28;20196;-66
2023/10/09 03:24:35;;;;;;;0.00;0.00;;;;;;;;;;1759998;28;20212;-66
2023/10/09 03:25:26;;;;;;;0.00;0.00;;;;;;;;;;1759794;28;20205;-66
2023/10/09 03:26:21;;;;;;;0.00;0.00;;;;;;;;;;1760011;28;20212;-67
2023/10/09 03:27:13;;;;;;;0.00;0.00;;;;;;;;;;1759352;28;20259;-66
2023/10/09 03:28:06;;;;;;;0.00;0.00;;;;;;;;;;1759917;28;20196;-66
2023/10/09 03:29:01;;;;;;;0.00;0.00;;;;;;;;;;1759579;28;20205;-65
2023/10/09 03:29:53;;;;;;;0.00;0.00;;;;;;;;;;1760286;28;20257;-66
2023/10/09 03:30:47;;;;;;;0.00;0.00;;;;;;;;;;1760184;27;20346;-66
2023/10/09 03:31:38;;;;;;;0.00;0.00;;;;;;;;;;1759836;28;20209;-66
2023/10/09 03:32:30;;;;;;;0.00;0.00;;;;;;;;;;1761329;27;20655;-67
2023/10/09 03:33:23;;;;;;;0.00;0.00;;;;;;;;;;1761033;27;20667;-67
2023/10/09 03:34:14;;;;;;;0.00;0.00;;;;;;;;;;1762509;27;20200;-67
2023/10/09 03:35:10;;;;;;;0.00;0.00;;;;;;;;;;1764378;27;20277;-66
2023/10/09 03:36:01;;;;;;;0.00;0.00;;;;;;;;;;1760600;27;20243;-67
2023/10/09 03:37:03;;;;;;;0.00;0.00;;;;;;;;;;1763437;27;20655;-66
2023/10/09 03:37:59;;;;;;;0.00;0.00;;;;;;;;;;1759997;28;20224;-66
2023/10/09 03:38:54;;;;;;;0.00;0.00;;;;;;;;;;1760732;27;20193;-66
2023/10/09 03:39:48;;;;;;;0.00;0.00;;;;;;;;;;1766825;27;20372;-66
2023/10/09 03:40:42;;;;;;;0.00;0.00;;;;;;;;;;1759866;27;20205;-66
2023/10/09 03:41:41;;;;;;;0.00;0.00;;;;;;;;;;1759645;27;20244;-66
2023/10/09 03:42:36;;;;;;;0.00;0.00;;;;;;;;;;1754032;28;20210;-66
2023/10/09 03:43:32;;;;;;;0.00;0.00;;;;;;;;;;1760635;27;20215;-67
2023/10/09 03:44:23;;;;;;;0.00;0.00;;;;;;;;;;1763671;27;20208;-66
2023/10/09 03:45:18;;;;;;;0.05;0.05;;;;;;;;;;1755497;28;20194;-66
2023/10/09 03:46:20;;;;;;;0.00;0.00;;;;;;;;;;1761072;27;20201;-65
2023/10/09 03:47:11;;;;;;;0.00;0.00;;;;;;;;;;1761738;27;20228;-66
2023/10/09 03:48:09;;;;;;;0.00;0.00;;;;;;;;;;1760604;27;20197;-67
2023/10/09 03:49:04;;;;;;;0.00;0.00;;;;;;;;;;1759982;27;20189;-66
2023/10/09 03:49:55;;;;;;;0.00;0.00;;;;;;;;;;1765581;27;20605;-66
2023/10/09 03:50:48;;;;;;;0.00;0.00;;;;;;;;;;1759828;28;21789;-66
2023/10/09 03:51:39;;;;;;;0.00;0.00;;;;;;;;;;1763577;27;20204;-67
2023/10/09 03:52:30;;;;;;;0.00;0.00;;;;;;;;;;1761167;27;20656;-66
2023/10/09 03:53:23;;;;;;;0.00;0.00;;;;;;;;;;1760698;27;20298;-66
2023/10/09 03:54:15;;;;;;;0.00;0.00;;;;;;;;;;1761972;27;20703;-66
2023/10/09 03:55:11;;;;;;;0.00;0.00;;;;;;;;;;1764300;27;20223;-65
2023/10/09 03:56:05;;;;;;;0.00;0.00;;;;;;;;;;1759500;28;20777;-66
2023/10/09 03:56:58;;;;;;;0.00;0.00;;;;;;;;;;1760032;28;20219;-66
2023/10/09 03:57:50;;;;;;;0.00;0.00;;;;;;;;;;1759119;28;20691;-66
2023/10/09 03:58:42;;;;;;;0.00;0.00;;;;;;;;;;1760901;27;20682;-66
2023/10/09 03:59:37;;;;;;;0.00;0.00;;;;;;;;;;1764987;27;20270;-66
2023/10/09 04:00:29;;;;;;;0.00;0.00;;;;;;;;;;1760693;27;20205;-66
2023/10/09 04:01:24;;;;;;;0.00;0.00;;;;;;;;;;1754709;27;20854;-66
2023/10/09 04:02:17;;;;;;;0.00;0.00;;;;;;;;;;1760414;27;20312;-66
2023/10/09 04:03:11;;;;;;;0.00;0.00;;;;;;;;;;1760659;27;20205;-66
2023/10/09 04:04:03;;;;;;;0.00;0.00;;;;;;;;;;1760389;27;20205;-66
2023/10/09 04:04:55;;;;;;;0.00;0.00;;;;;;;;;;1765928;27;20283;-66
2023/10/09 04:05:46;;;;;;;0.00;0.00;;;;;;;;;;1759939;27;20254;-66
2023/10/09 04:06:38;;;;;;;0.00;0.00;;;;;;;;;;1763590;27;20249;-66
2023/10/09 04:07:31;;;;;;;0.00;0.00;;;;;;;;;;1761092;27;20646;-66
2023/10/09 04:08:28;;;;;;;0.00;0.00;;;;;;;;;;1760676;27;20204;-66
2023/10/09 04:09:29;;;;;;;0.00;0.00;;;;;;;;;;1763192;27;20196;-66
2023/10/09 04:10:32;;;;;;;0.00;0.00;;;;;;;;;;1761938;27;20209;-66
2023/10/09 04:11:24;;;;;;;0.00;0.00;;;;;;;;;;1763635;27;20246;-67
2023/10/09 04:12:22;;;;;;;0.00;0.00;;;;;;;;;;1749038;28;20634;-67
2023/10/09 04:13:22;;;;;;;0.00;0.00;;;;;;;;;;1752710;28;20747;-67
2023/10/09 04:14:24;;;;;;;0.00;0.00;;;;;;;;;;1755122;28;20209;-66
2023/10/09 04:15:17;;;;;;;0.00;0.00;;;;;;;;;;1755695;28;20735;-66
2023/10/09 04:16:26;;;;;;;0.00;0.00;;;;;;;;;;1752958;28;20205;-66
2023/10/09 04:17:33;;;;;;;0.00;0.00;;;;;;;;;;1752980;28;20289;-66
2023/10/09 04:18:32;;;;;;;0.00;0.00;;;;;;;;;;1753898;28;20201;-67
2023/10/09 04:19:23;;;;;;;0.00;0.00;;;;;;;;;;1752801;28;20206;-66
2023/10/09 04:21:33;;;;;;;0.00;0.00;;;;;;;;;;1752602;28;20251;-66
2023/10/09 04:22:26;;;;;;;0.00;0.00;;;;;;;;;;1752769;28;20221;-65
2023/10/09 04:23:34;;;;;;;0.00;0.00;;;;;;;;;;1752554;28;20225;-65
2023/10/09 04:24:25;;;;;;;0.00;0.00;;;;;;;;;;1753099;28;20201;-65
2023/10/09 04:25:25;;;;;;;0.00;0.00;;;;;;;;;;1752715;28;20205;-66
2023/10/09 04:26:20;;;;;;;0.00;0.00;;;;;;;;;;1755390;28;20314;-66
2023/10/09 04:27:12;;;;;;;0.00;0.00;;;;;;;;;;1752774;28;20237;-66
2023/10/09 04:28:09;;;;;;;0.00;0.00;;;;;;;;;;1757062;28;20281;-66
2023/10/09 04:29:02;;;;;;;0.00;0.00;;;;;;;;;;1752803;28;20280;-65
2023/10/09 04:29:54;;;;;;;0.00;0.00;;;;;;;;;;1758800;28;20219;-66
2023/10/09 04:30:46;;;;;;;0.00;0.00;;;;;;;;;;1752697;28;20213;-66
2023/10/09 04:31:38;;;;;;;0.00;0.00;;;;;;;;;;1755300;28;20207;-66
2023/10/09 04:32:29;;;;;;;0.00;0.00;;;;;;;;;;1750461;28;20221;-66
2023/10/09 04:33:40;;;;;;;0.00;0.00;;;;;;;;;;1751260;28;20683;-65
2023/10/09 04:34:36;;;;;;;0.00;0.00;;;;;;;;;;1753120;28;20236;-66
2023/10/09 04:35:30;;;;;;;0.00;0.00;;;;;;;;;;1751865;28;20206;-66
2023/10/09 04:36:22;;;;;;;0.00;0.00;;;;;;;;;;1752897;28;20201;-66
2023/10/09 04:37:24;;;;;;;0.00;0.00;;;;;;;;;;1752340;28;20216;-68
2023/10/09 04:38:15;;;;;;;0.00;0.00;;;;;;;;;;1751665;28;20657;-66
2023/10/09 04:39:25;;;;;;;0.00;0.00;;;;;;;;;;1751975;28;20205;-66
2023/10/09 04:40:41;;;;;;;0.00;0.00;;;;;;;;;;1753236;28;20213;-65
2023/10/09 04:41:32;;;;;;;0.00;0.00;;;;;;;;;;1752658;28;20696;-65
2023/10/09 04:42:38;;;;;;;0.00;0.00;;;;;;;;;;1751480;28;20217;-66
2023/10/09 04:43:33;;;;;;;0.00;0.00;;;;;;;;;;1751079;28;20688;-66
2023/10/09 04:44:24;;;;;;;0.00;0.00;;;;;;;;;;1752464;28;20262;-66
2023/10/09 04:45:21;;;;;;;0.00;0.00;;;;;;;;;;1744508;28;20199;-66
2023/10/09 04:46:23;;;;;;;0.00;0.00;;;;;;;;;;1747375;28;20516;-68
2023/10/09 04:47:25;;;;;;;0.00;0.00;;;;;;;;;;1744113;28;20191;-68
2023/10/09 04:48:32;;;;;;;0.00;0.00;;;;;;;;;;1744198;28;20207;-68
2023/10/09 04:49:27;;;;;;;0.00;0.00;;;;;;;;;;1744297;28;20207;-68
2023/10/09 04:51:34;;;;;;;0.00;0.00;;;;;;;;;;1730655;28;20273;-66
2023/10/09 04:53:39;;;;;;;0.00;0.00;;;;;;;;;;1749196;28;20680;-66
2023/10/09 04:54:39;;;;;;;0.00;0.00;;;;;;;;;;1752335;28;20206;-66
2023/10/09 04:55:38;;;;;;;0.00;0.00;;;;;;;;;;1755425;28;20201;-68
2023/10/09 04:56:32;;;;;;;0.00;0.00;;;;;;;;;;1755549;28;20208;-67
2023/10/09 04:57:25;;;;;;;0.00;0.00;;;;;;;;;;1751439;28;20263;-68
2023/10/09 04:58:23;;;;;;;0.00;0.00;;;;;;;;;;1751908;28;20365;-66
2023/10/09 04:59:18;;;;;;;0.00;0.00;;;;;;;;;;1752641;28;20198;-68
2023/10/09 05:00:22;;;;;;;0.00;0.00;;;;;;;;;;1752818;28;20343;-68
2023/10/09 05:01:16;;;;;;;0.00;0.00;;;;;;;;;;1749870;28;20222;-65
2023/10/09 05:02:18;;;;;;;0.00;0.00;;;;;;;;;;1751729;28;20221;-65
2023/10/09 05:03:11;;;;;;;0.00;0.00;;;;;;;;;;1752565;28;20197;-66
2023/10/09 05:04:04;;;;;;;0.00;0.00;;;;;;;;;;1752593;28;20209;-65
2023/10/09 05:05:15;;;;;;;0.00;0.00;;;;;;;;;;1746476;28;20233;-66
2023/10/09 05:06:20;;;;;;;0.00;0.00;;;;;;;;;;1751529;28;20664;-65
2023/10/09 05:07:25;;;;;;;0.00;0.00;;;;;;;;;;1752123;28;20684;-68
2023/10/09 05:08:19;;;;;;;0.00;0.00;;;;;;;;;;1751974;28;20201;-67
2023/10/09 05:09:14;;;;;;;0.00;0.00;;;;;;;;;;1751937;28;20198;-65
2023/10/09 05:10:14;;;;;;;0.00;0.00;;;;;;;;;;1752194;28;20201;-65
2023/10/09 05:11:15;;;;;;;0.00;0.00;;;;;;;;;;1750280;28;20208;-65
2023/10/09 05:12:16;;;;;;;0.00;0.00;;;;;;;;;;1752427;28;20723;-65
2023/10/09 05:13:13;;;;;;;0.00;0.00;;;;;;;;;;1759344;28;20208;-68
2023/10/09 05:14:13;;;;;;;0.00;0.00;;;;;;;;;;1758629;28;20197;-65
2023/10/09 05:15:08;;;;;;;0.00;0.00;;;;;;;;;;1763444;27;20217;-65
2023/10/09 05:16:02;;;;;;;0.00;0.00;;;;;;;;;;1759686;28;20209;-67
2023/10/09 05:16:54;;;;;;;0.00;0.00;;;;;;;;;;1756061;28;20563;-65
2023/10/09 05:17:52;;;;;;;0.00;0.00;;;;;;;;;;1759000;28;20209;-65
2023/10/09 05:18:45;;;;;;;0.00;0.00;;;;;;;;;;1758889;28;20608;-66
2023/10/09 05:19:54;;;;;;;0.00;0.00;;;;;;;;;;1759023;28;20608;-65
2023/10/09 05:20:55;;;;;;;0.00;0.00;;;;;;;;;;1762040;28;20571;-64
2023/10/09 05:21:47;;;;;;;0.00;0.00;;;;;;;;;;1757731;28;20205;-65
2023/10/09 05:22:38;;;;;;;0.00;0.00;;;;;;;;;;1759108;28;20200;-68
2023/10/09 05:23:34;;;;;;;0.00;0.00;;;;;;;;;;1758447;28;20212;-65
2023/10/09 05:24:28;;;;;;;0.00;0.00;;;;;;;;;;1759293;28;20339;-65
2023/10/09 05:25:51;;;;;;;0.00;0.00;;;;;;;;;;1760920;28;21009;-65
2023/10/09 05:26:49;;;;;;;0.00;0.00;;;;;;;;;;1758658;28;20608;-65
2023/10/09 05:27:50;;;;;;;0.00;0.00;;;;;;;;;;1759072;28;20545;-65
2023/10/09 05:29:59;;;;;;;0.00;0.00;;;;;;;;;;1758000;28;20294;-64
2023/10/09 05:31:02;;;;;;;0.00;0.00;;;;;;;;;;1758700;28;20691;-65
2023/10/09 05:32:03;;;;;;;0.00;0.00;;;;;;;;;;1761708;28;20235;-65
2023/10/09 05:33:27;;;;;;;0.00;0.00;;;;;;;;;;1759566;28;21032;-66
2023/10/09 05:34:19;;;;;;;0.00;0.00;;;;;;;;;;1757432;28;20567;-65
2023/10/09 05:35:15;;;;;;;0.00;0.00;;;;;;;;;;1763379;28;20209;-64
2023/10/09 05:36:31;;;;;;;0.00;0.00;;;;;;;;;;1760652;28;20284;-65
2023/10/09 05:37:24;;;;;;;0.00;0.00;;;;;;;;;;1759131;28;20193;-67
2023/10/09 05:38:23;;;;;;;0.00;0.00;;;;;;;;;;1758766;28;20208;-67
2023/10/09 05:39:19;;;;;;;0.00;0.00;;;;;;;;;;1760714;28;20235;-65
2023/10/09 05:40:23;;;;;;;0.00;0.00;;;;;;;;;;1763094;28;20196;-64
2023/10/09 05:42:21;;;;;;;0.00;0.00;;;;;;;;;;1749194;28;20598;-65
2023/10/09 05:44:55;;;;;;;0.00;0.00;;;;;;;;;;1758836;28;20533;-65
2023/10/09 05:46:07;;;;;;;0.00;0.00;;;;;;;;;;1762053;28;20202;-64